Time;durP1;ratioP1;P1;durP2;ratioP2;P2;SDS_P1;SDS_P2;PMS_P1;PMS_P2;Temp;Humidity;BMP_temperature;BMP_pressure;BME280_temperature;BME280_humidity;BME280_pressure;Samples;Min_cycle;Max_cycle;Signal;HPM_P1;HPM_P2
2023/09/07 00:04:00;;;;;;;5.13;4.63;;;;;;;15.72;99.95;152638.34;10375843;28;20050;-70
2023/09/07 00:09:02;;;;;;;4.47;4.15;;;;;;;15.64;100.00;152620.19;10375402;28;20045;-70
2023/09/07 00:14:07;;;;;;;5.63;5.13;;;;;;;15.56;100.00;152598.09;10376683;28;20125;-71
2023/09/07 00:19:09;;;;;;;4.97;4.57;;;;;;;15.29;100.00;152529.44;10374065;28;20107;-71
2023/09/07 00:24:11;;;;;;;5.20;4.80;;;;;;;15.54;100.00;152592.94;10375033;28;20112;-71
2023/09/07 00:29:12;;;;;;;5.30;4.82;;;;;;;15.17;100.00;152499.63;10375043;28;20042;-71
2023/09/07 00:34:14;;;;;;;5.68;5.28;;;;;;;15.00;100.00;152456.88;10357096;28;20046;-70
2023/09/07 00:39:16;;;;;;;5.15;4.78;;;;;;;15.03;100.00;152463.34;10374691;28;20065;-69
2023/09/07 00:44:18;;;;;;;4.47;4.18;;;;;;;15.22;100.00;152512.56;10374480;28;20048;-69
2023/09/07 00:49:20;;;;;;;4.43;4.13;;;;;;;14.93;100.00;152438.75;10373383;28;20065;-69
2023/09/07 00:54:22;;;;;;;4.97;4.57;;;;;;;14.92;100.00;152434.84;10374819;28;20049;-69
2023/09/07 00:59:24;;;;;;;4.97;4.57;;;;;;;15.01;100.00;152459.50;10374649;28;20072;-69
2023/09/07 01:04:26;;;;;;;4.32;4.03;;;;;;;14.87;100.00;152423.19;10356931;28;20053;-70
2023/09/07 01:09:32;;;;;;;4.95;4.47;;;;;;;14.84;100.00;152416.75;10356579;28;20046;-70
2023/09/07 01:14:33;;;;;;;5.90;5.40;;;;;;;14.99;100.00;152453.00;10374697;28;20041;-70
2023/09/07 01:19:35;;;;;;;5.45;5.05;;;;;;;14.79;100.00;152402.50;10356079;28;20045;-70
2023/09/07 01:24:38;;;;;;;5.47;5.03;;;;;;;14.62;100.00;152359.75;10372291;28;20072;-70
2023/09/07 01:29:41;;;;;;;5.70;5.20;;;;;;;14.52;100.00;152335.16;10422834;22;20046;-78
2023/09/07 01:34:43;;;;;;;5.93;5.43;;;;;;;14.45;100.00;152316.97;10426310;28;20041;-78
2023/09/07 01:39:45;;;;;;;5.63;5.22;;;;;;;14.40;100.00;152304.03;10425507;28;20042;-77
2023/09/07 01:44:47;;;;;;;5.55;5.15;;;;;;;14.48;100.00;152324.78;10421517;28;20038;-77
2023/09/07 01:49:49;;;;;;;5.75;5.25;;;;;;;14.58;100.00;152350.69;10422817;28;20037;-78
2023/09/07 01:54:50;;;;;;;5.40;4.90;;;;;;;14.35;100.00;152291.09;10423053;28;20045;-78
2023/09/07 01:59:53;;;;;;;5.90;5.32;;;;;;;14.17;100.00;152244.47;10423982;28;20095;-77
2023/09/07 02:04:54;;;;;;;5.68;5.10;;;;;;;14.05;100.00;152215.97;10422834;28;20051;-78
2023/09/07 02:09:56;;;;;;;5.72;5.32;;;;;;;13.93;100.00;152184.91;10425598;28;20052;-78
2023/09/07 02:15:02;;;;;;;5.43;5.03;;;;;;;13.92;100.00;152182.31;10423849;28;20044;-78
2023/09/07 02:20:10;;;;;;;6.05;5.55;;;;;;;13.96;100.00;152192.69;10422052;28;20103;-78
2023/09/07 02:25:12;;;;;;;5.97;5.40;;;;;;;14.12;100.00;152234.13;10424383;28;20037;-78
2023/09/07 02:30:14;;;;;;;5.35;4.95;;;;;;;14.05;100.00;152214.69;10426832;28;20458;-78
2023/09/07 02:35:16;;;;;;;6.00;5.57;;;;;;;14.08;100.00;152222.47;10429496;28;20056;-78
2023/09/07 02:40:18;;;;;;;5.90;5.50;;;;;;;14.07;100.00;152221.13;10425746;28;20050;-78
2023/09/07 02:45:20;;;;;;;6.43;5.53;;;;;;;13.96;100.00;152192.69;10422842;28;20129;-78
2023/09/07 02:50:22;;;;;;;6.93;6.32;;;;;;;13.98;100.00;152196.53;10422531;28;20061;-78
2023/09/07 02:55:24;;;;;;;5.88;5.47;;;;;;;13.81;100.00;152155.16;10422032;28;20496;-79
2023/09/07 03:00:26;;;;;;;6.45;5.85;;;;;;;13.92;100.00;152182.31;10425569;28;20049;-78
2023/09/07 03:05:28;;;;;;;6.05;5.55;;;;;;;13.84;100.00;152162.91;10426659;28;20122;-78
2023/09/07 03:10:30;;;;;;;6.32;5.72;;;;;;;13.79;100.00;152149.97;10425714;28;20525;-78
2023/09/07 03:15:33;;;;;;;6.00;5.40;;;;;;;13.66;100.00;152115.03;10425731;28;20051;-78
2023/09/07 03:20:38;;;;;;;6.13;5.63;;;;;;;13.77;100.00;152143.50;10425639;28;20465;-78
2023/09/07 03:25:40;;;;;;;6.55;6.05;;;;;;;13.85;100.00;152164.19;10424951;28;20100;-78
2023/09/07 03:30:42;;;;;;;6.50;6.00;;;;;;;13.84;100.00;152161.59;10424032;28;20470;-78
2023/09/07 03:35:45;;;;;;;6.53;6.00;;;;;;;13.54;100.00;152086.53;10424509;28;20095;-78
2023/09/07 03:40:47;;;;;;;6.15;5.65;;;;;;;13.66;100.00;152116.31;10424725;28;20124;-78
2023/09/07 03:45:49;;;;;;;5.70;5.30;;;;;;;13.45;100.00;152061.94;10424888;28;20042;-79
2023/09/07 03:50:51;;;;;;;6.75;6.15;;;;;;;13.65;100.00;152112.44;10425628;28;20091;-79
2023/09/07 03:55:53;;;;;;;6.60;6.00;;;;;;;13.49;100.00;152073.59;10425395;28;20061;-78
2023/09/07 04:00:59;;;;;;;6.70;6.13;;;;;;;13.30;100.00;152025.72;10424394;28;20144;-77
2023/09/07 04:06:03;;;;;;;5.90;5.50;;;;;;;13.19;100.00;151995.91;10421851;28;20076;-77
2023/09/07 04:11:05;;;;;;;7.68;7.07;;;;;;;13.49;100.00;152072.31;10420983;28;20049;-76
2023/09/07 04:16:10;;;;;;;6.32;5.72;;;;;;;13.19;100.00;151997.19;10420640;28;20457;-77
2023/09/07 04:21:12;;;;;;;6.57;6.05;;;;;;;13.13;100.00;151982.97;10420385;28;20056;-76
2023/09/07 04:26:14;;;;;;;7.43;6.82;;;;;;;13.25;100.00;152011.50;10419417;28;20052;-77
2023/09/07 04:31:16;;;;;;;6.13;5.63;;;;;;;13.32;100.00;152030.88;10423246;28;20041;-77
2023/09/07 04:36:18;;;;;;;7.88;7.13;;;;;;;13.52;100.00;152080.09;10419625;28;20521;-76
2023/09/07 04:41:22;;;;;;;7.32;6.40;;;;;;;13.41;100.00;152052.88;10420124;28;20095;-77
2023/09/07 04:46:24;;;;;;;7.18;6.32;;;;;;;13.13;100.00;151981.69;10419568;28;20410;-76
2023/09/07 04:51:27;;;;;;;6.45;5.82;;;;;;;13.07;100.00;151967.47;10419670;28;20107;-77
2023/09/07 04:56:29;;;;;;;6.32;5.78;;;;;;;13.01;100.00;151950.63;10420562;28;20045;-77
2023/09/07 05:01:32;;;;;;;7.53;6.93;;;;;;;13.08;100.00;151970.06;10420726;28;20069;-77
2023/09/07 05:06:37;;;;;;;6.50;5.93;;;;;;;13.12;100.00;151980.41;10422717;28;20052;-77
2023/09/07 05:11:40;;;;;;;7.57;6.97;;;;;;;13.21;100.00;152002.41;10426829;28;20111;-78
2023/09/07 05:16:43;;;;;;;6.90;6.40;;;;;;;13.33;100.00;152033.50;10428418;28;20455;-77
2023/09/07 05:21:46;;;;;;;7.78;6.70;;;;;;;13.43;100.00;152056.78;10427546;28;20041;-77
2023/09/07 05:26:49;;;;;;;7.88;7.22;;;;;;;13.67;100.00;152118.88;10427531;28;20049;-77
2023/09/07 05:31:52;;;;;;;8.27;7.57;;;;;;;13.86;100.00;152168.09;10426903;28;20076;-77
2023/09/07 05:36:54;;;;;;;7.57;6.88;;;;;;;13.91;100.00;152178.44;10428593;28;20037;-77
2023/09/07 05:41:56;;;;;;;7.82;7.13;;;;;;;14.00;100.00;152203.03;10427751;28;20483;-77
2023/09/07 05:46:58;;;;;;;7.38;6.70;;;;;;;14.18;100.00;152247.06;10427216;28;20041;-76
2023/09/07 05:52:02;;;;;;;7.78;6.95;;;;;;;14.35;100.00;152292.38;10427799;28;20124;-77
2023/09/07 05:57:04;;;;;;;7.03;6.40;;;;;;;14.50;100.00;152328.66;10430635;28;20580;-77
2023/09/07 06:02:08;;;;;;;6.53;6.03;;;;;;;15.20;100.00;152506.13;10412536;28;20049;-77
2023/09/07 06:07:10;;;;;;;6.03;5.45;;;;;;;15.88;94.00;152679.78;10427736;28;20049;-77
2023/09/07 06:12:13;;;;;;;5.45;5.05;;;;;;;16.11;93.16;152738.13;10427898;28;20041;-77
2023/09/07 06:17:16;;;;;;;4.70;4.32;;;;;;;16.27;92.59;152778.31;10426398;28;20200;-77
2023/09/07 06:22:18;;;;;;;6.25;4.93;;;;;;;16.37;91.86;152805.53;10426932;28;20248;-77
2023/09/07 06:27:20;;;;;;;5.25;4.85;;;;;;;16.76;88.11;152904.16;10426633;28;20095;-77
2023/09/07 06:32:22;;;;;;;6.13;5.10;;;;;;;17.07;86.56;152983.28;10427583;28;20423;-77
2023/09/07 06:37:25;;;;;;;4.55;4.18;;;;;;;17.49;82.60;153089.69;10425749;28;20047;-76
2023/09/07 06:42:26;;;;;;;5.13;4.63;;;;;;;17.54;83.05;153102.66;10425844;28;20072;-77
2023/09/07 06:47:36;;;;;;;7.25;4.68;;;;;;;17.97;80.82;153211.69;10425040;28;20400;-76
2023/09/07 06:52:39;;;;;;;5.13;4.43;;;;;;;18.26;79.72;153284.44;10409098;28;20053;-77
2023/09/07 06:57:42;;;;;;;3.97;3.63;;;;;;;18.44;78.32;153331.16;10410352;28;20049;-76
2023/09/07 07:02:44;;;;;;;4.35;3.65;;;;;;;18.67;77.53;153389.59;10409142;28;20057;-76
2023/09/07 07:07:47;;;;;;;4.68;3.30;;;;;;;18.98;75.04;153467.56;10424279;28;20045;-76
2023/09/07 07:12:49;;;;;;;3.53;3.25;;;;;;;19.12;75.22;153505.28;10426267;28;20053;-77
2023/09/07 07:17:51;;;;;;;5.70;3.67;;;;;;;19.46;72.26;153591.00;10428364;28;20076;-76
2023/09/07 07:22:53;;;;;;;4.15;2.90;;;;;;;19.63;71.59;153635.22;10427893;28;20052;-77
2023/09/07 07:27:56;;;;;;;4.43;3.70;;;;;;;19.79;70.61;153675.53;10423805;28;20129;-74
2023/09/07 07:32:58;;;;;;;3.80;3.13;;;;;;;20.08;69.05;153749.59;10417814;28;20052;-74
2023/09/07 07:38:00;;;;;;;4.10;3.70;;;;;;;20.02;69.12;153732.72;10417435;28;20116;-73
2023/09/07 07:43:02;;;;;;;5.93;3.50;;;;;;;20.16;68.31;153769.13;10416113;28;20042;-73
2023/09/07 07:48:07;;;;;;;4.15;3.75;;;;;;;20.24;68.99;153789.91;10415577;28;20041;-73
2023/09/07 07:53:11;;;;;;;4.38;3.70;;;;;;;20.47;67.95;153848.41;10415181;28;20049;-73
2023/09/07 07:58:14;;;;;;;3.95;3.65;;;;;;;20.90;65.88;153959.00;10415779;28;20045;-73
2023/09/07 08:03:17;;;;;;;3.25;3.00;;;;;;;20.70;68.61;153905.69;10414994;28;20057;-73
2023/09/07 08:08:19;;;;;;;3.45;3.15;;;;;;;21.23;66.20;154042.25;10416481;28;20426;-73
2023/09/07 08:13:22;;;;;;;5.55;3.00;;;;;;;21.27;66.15;154052.66;10415116;28;20525;-73
2023/09/07 08:18:25;;;;;;;3.55;3.25;;;;;;;21.69;66.01;154159.38;10415643;28;20060;-73
2023/09/07 08:23:27;;;;;;;3.25;2.80;;;;;;;22.01;63.43;154240.09;10415235;28;20168;-73
2023/09/07 08:28:29;;;;;;;3.35;3.05;;;;;;;22.25;61.27;154302.59;10414397;28;20053;-73
2023/09/07 08:33:35;;;;;;;6.03;3.47;;;;;;;22.49;60.92;154362.47;10415756;28;20080;-73
2023/09/07 08:38:37;;;;;;;2.97;2.57;;;;;;;22.76;59.75;154432.81;10416932;28;20044;-73
2023/09/07 08:43:47;;;;;;;3.03;2.83;;;;;;;22.90;60.04;154468.03;10422039;28;20103;-73
2023/09/07 08:48:55;;;;;;;3.20;2.90;;;;;;;22.93;60.15;154475.81;10422155;28;20037;-73
2023/09/07 08:53:58;;;;;;;3.95;2.70;;;;;;;23.44;58.31;154606.06;10423049;28;20449;-73
2023/09/07 08:59:00;;;;;;;3.15;2.95;;;;;;;23.63;57.85;154655.56;10421475;28;20045;-73
2023/09/07 09:04:05;;;;;;;3.47;2.72;;;;;;;23.70;56.76;154671.28;10422882;28;20045;-74
2023/09/07 09:09:07;;;;;;;3.08;2.88;;;;;;;24.15;56.07;154788.53;10423513;28;20108;-73
2023/09/07 09:14:09;;;;;;;3.70;2.60;;;;;;;24.21;56.44;154802.84;10423481;28;20049;-73
2023/09/07 09:19:11;;;;;;;3.63;2.80;;;;;;;24.72;53.99;154932.00;10422925;28;20044;-73
2023/09/07 09:24:14;;;;;;;2.75;2.45;;;;;;;24.89;53.41;154976.31;10423067;28;20041;-73
2023/09/07 09:29:16;;;;;;;2.30;2.10;;;;;;;25.73;49.48;155191.56;10423180;28;20495;-74
2023/09/07 09:34:19;;;;;;;3.55;2.15;;;;;;;26.28;48.69;155331.22;10423812;28;20068;-74
2023/09/07 09:39:23;;;;;;;2.85;2.13;;;;;;;26.93;45.30;155498.34;10423366;28;20088;-74
2023/09/07 09:44:29;;;;;;;3.45;2.40;;;;;;;27.39;44.10;155617.19;10421361;28;20045;-75
2023/09/07 09:49:32;;;;;;;2.70;2.38;;;;;;;27.82;44.98;155726.94;10420881;28;20041;-74
2023/09/07 09:54:35;;;;;;;2.67;2.08;;;;;;;28.04;44.07;155783.13;10420133;28;20055;-73
2023/09/07 09:59:37;;;;;;;4.00;2.70;;;;;;;28.49;44.33;155898.13;10421230;28;20208;-73
2023/09/07 10:04:39;;;;;;;3.67;2.25;;;;;;;29.11;42.57;156057.59;10421848;28;20103;-72
2023/09/07 10:09:41;;;;;;;3.13;2.65;;;;;;;29.12;40.55;156060.22;10421337;28;20112;-73
2023/09/07 10:14:45;;;;;;;2.50;2.30;;;;;;;29.23;39.76;156087.69;10421083;28;20120;-72
2023/09/07 10:19:51;;;;;;;2.63;2.30;;;;;;;29.26;39.12;156095.50;10419177;28;20069;-74
2023/09/07 10:24:58;;;;;;;2.20;2.00;;;;;;;29.27;38.11;156096.84;10419627;28;20538;-74
2023/09/07 10:29:59;;;;;;;2.85;2.15;;;;;;;29.75;37.36;156219.75;10419221;28;20116;-74
2023/09/07 10:35:12;;;;;;;4.15;2.20;;;;;;;29.92;36.90;156264.22;10419639;28;20069;-73
2023/09/07 10:40:21;;;;;;;2.53;2.33;;;;;;;30.03;37.60;156291.72;10418278;28;20050;-74
2023/09/07 10:45:23;;;;;;;2.42;2.22;;;;;;;29.90;35.66;156260.31;10419521;28;20045;-73
2023/09/07 10:50:25;;;;;;;2.70;2.50;;;;;;;29.31;35.64;156108.63;10420825;28;20129;-73
2023/09/07 10:55:27;;;;;;;3.45;2.35;;;;;;;29.81;34.39;156235.47;10417909;28;20457;-74
2023/09/07 11:00:29;;;;;;;2.60;1.95;;;;;;;29.94;34.20;156268.19;10418302;28;20037;-74
2023/09/07 11:05:36;;;;;;;3.58;2.28;;;;;;;29.74;34.17;156218.44;10418185;28;20057;-74
2023/09/07 11:10:38;;;;;;;3.75;2.50;;;;;;;29.73;34.75;156214.56;10417687;28;20095;-74
2023/09/07 11:15:42;;;;;;;5.10;2.60;;;;;;;29.80;36.34;156232.88;10417548;28;20124;-74
2023/09/07 11:20:44;;;;;;;2.10;1.90;;;;;;;29.76;33.99;156223.72;10417611;28;20092;-75
2023/09/07 11:25:49;;;;;;;2.65;2.20;;;;;;;29.63;33.17;156191.00;10417552;28;20042;-74
2023/09/07 11:30:55;;;;;;;4.13;2.75;;;;;;;29.96;35.12;156273.38;10415906;28;20061;-73
2023/09/07 11:35:57;;;;;;;2.60;2.40;;;;;;;30.50;32.69;156413.34;10415457;28;20061;-74
2023/09/07 11:40:59;;;;;;;2.78;2.13;;;;;;;30.74;33.38;156473.63;10416825;28;20042;-73
2023/09/07 11:46:01;;;;;;;2.97;2.65;;;;;;;30.89;32.91;156512.84;10417109;28;20053;-73
2023/09/07 11:51:03;;;;;;;2.30;2.10;;;;;;;30.71;32.10;156465.72;10416256;28;20041;-74
2023/09/07 11:56:05;;;;;;;2.45;2.00;;;;;;;30.71;33.39;156465.72;10414550;28;20136;-73
2023/09/07 12:01:06;;;;;;;2.17;1.98;;;;;;;30.67;30.74;156457.84;10415605;28;20045;-73
2023/09/07 12:06:09;;;;;;;2.30;1.92;;;;;;;30.50;32.11;156412.06;10415771;28;20077;-72
2023/09/07 12:11:11;;;;;;;3.20;2.30;;;;;;;30.48;33.77;156408.16;10415747;28;20056;-73
2023/09/07 12:16:13;;;;;;;2.08;1.85;;;;;;;30.23;32.32;156344.03;10414756;28;20049;-72
2023/09/07 12:21:15;;;;;;;2.53;2.33;;;;;;;29.70;32.97;156206.69;10415108;28;20446;-72
2023/09/07 12:26:19;;;;;;;2.50;2.15;;;;;;;29.75;32.52;156221.09;10416100;28;20049;-73
2023/09/07 12:31:21;;;;;;;1.95;1.75;;;;;;;29.77;31.63;156226.31;10415103;28;20084;-72
2023/09/07 12:36:23;;;;;;;2.47;1.90;;;;;;;29.41;31.95;156133.44;10416269;28;20084;-73
2023/09/07 12:41:24;;;;;;;3.58;2.35;;;;;;;29.32;32.41;156109.91;10414968;28;20116;-73
2023/09/07 12:46:26;;;;;;;3.00;2.15;;;;;;;29.16;32.49;156070.66;10414327;28;20057;-74
2023/09/07 12:51:28;;;;;;;1.90;1.80;;;;;;;29.02;32.04;156034.09;10416886;28;20068;-74
2023/09/07 12:56:30;;;;;;;3.65;1.67;;;;;;;28.90;33.05;156002.66;10414620;28;20046;-76
2023/09/07 13:01:32;;;;;;;2.63;1.95;;;;;;;29.04;33.01;156039.34;10419731;28;20052;-77
2023/09/07 13:06:35;;;;;;;2.25;1.88;;;;;;;28.95;32.55;156015.72;10414708;28;20046;-76
2023/09/07 13:11:36;;;;;;;1.75;1.65;;;;;;;28.73;33.19;155958.22;10416968;28;20046;-77
2023/09/07 13:16:38;;;;;;;2.08;1.80;;;;;;;28.79;32.44;155973.94;10417182;28;20092;-78
2023/09/07 13:21:40;;;;;;;2.30;2.00;;;;;;;28.71;33.79;155954.31;10417402;28;20380;-77
2023/09/07 13:26:47;;;;;;;2.20;1.67;;;;;;;28.56;33.30;155916.44;10417526;28;20042;-77
2023/09/07 13:31:49;;;;;;;2.45;2.25;;;;;;;28.55;33.70;155913.78;10424914;28;20045;-79
2023/09/07 13:36:51;;;;;;;2.17;2.03;;;;;;;28.51;33.57;155902.03;10423930;28;20045;-78
2023/09/07 13:41:53;;;;;;;2.20;1.70;;;;;;;28.38;33.38;155870.72;10424542;28;20069;-76
2023/09/07 13:46:54;;;;;;;2.28;1.60;;;;;;;28.37;33.02;155868.06;10405492;28;20380;-77
2023/09/07 13:51:57;;;;;;;3.22;1.88;;;;;;;28.35;32.95;155861.56;10423322;28;20100;-78
2023/09/07 13:56:59;;;;;;;2.10;1.80;;;;;;;28.37;33.26;155868.06;10421716;28;20406;-77
2023/09/07 14:02:01;;;;;;;2.85;1.77;;;;;;;28.31;32.87;155851.03;10425383;28;20049;-77
2023/09/07 14:07:03;;;;;;;2.95;1.63;;;;;;;28.41;32.81;155878.50;10423226;28;20049;-77
2023/09/07 14:12:05;;;;;;;1.55;1.45;;;;;;;28.39;32.88;155872.00;10421559;28;20037;-75
2023/09/07 14:17:07;;;;;;;2.03;1.60;;;;;;;28.37;32.06;155868.06;10420996;28;20107;-77
2023/09/07 14:22:09;;;;;;;1.95;1.85;;;;;;;28.38;32.43;155869.41;10420876;28;20045;-78
2023/09/07 14:27:11;;;;;;;1.90;1.80;;;;;;;28.49;32.71;155896.81;10425869;28;20037;-78
2023/09/07 14:32:12;;;;;;;2.20;1.95;;;;;;;28.37;33.56;155866.75;10425574;28;20099;-79
2023/09/07 14:37:14;;;;;;;2.58;2.38;;;;;;;28.42;33.40;155879.81;10423164;28;20073;-77
2023/09/07 14:42:19;;;;;;;1.58;1.48;;;;;;;28.39;32.28;155873.31;10419533;28;20065;-78
2023/09/07 14:47:25;;;;;;;1.80;1.50;;;;;;;28.21;32.22;155824.94;10418777;28;20387;-76
2023/09/07 14:52:27;;;;;;;1.50;1.40;;;;;;;28.31;32.62;155852.34;10417374;28;20046;-76
2023/09/07 14:57:29;;;;;;;1.80;1.60;;;;;;;28.22;32.93;155827.53;10418986;28;20483;-76
2023/09/07 15:02:30;;;;;;;2.75;1.60;;;;;;;28.17;33.06;155815.78;10417432;28;20049;-76
2023/09/07 15:07:32;;;;;;;1.63;1.50;;;;;;;28.04;33.09;155783.13;10419605;28;20128;-76
2023/09/07 15:12:34;;;;;;;2.28;1.52;;;;;;;28.04;32.70;155781.81;10419037;28;20079;-76
2023/09/07 15:17:39;;;;;;;2.47;1.83;;;;;;;27.98;33.74;155767.47;10418089;28;20064;-76
2023/09/07 15:22:41;;;;;;;2.00;1.50;;;;;;;27.97;34.23;155763.50;10418064;28;20476;-78
2023/09/07 15:27:45;;;;;;;2.05;1.70;;;;;;;27.95;33.70;155759.59;10418588;28;20063;-76
2023/09/07 15:32:47;;;;;;;2.65;1.60;;;;;;;27.81;34.55;155723.03;10415492;28;20144;-76
2023/09/07 15:37:49;;;;;;;1.90;1.65;;;;;;;27.77;34.65;155712.59;10416955;28;20042;-77
2023/09/07 15:42:51;;;;;;;1.88;1.40;;;;;;;27.58;34.65;155665.53;10416900;28;20080;-76
2023/09/07 15:47:54;;;;;;;2.08;1.50;;;;;;;27.73;33.49;155702.13;10417243;28;20064;-76
2023/09/07 15:52:56;;;;;;;2.55;2.35;;;;;;;27.61;33.65;155672.03;10416381;28;20045;-77
2023/09/07 15:57:58;;;;;;;4.30;3.13;;;;;;;27.44;35.00;155628.94;10415800;28;20037;-76
2023/09/07 16:03:00;;;;;;;1.50;1.40;;;;;;;27.25;34.88;155579.31;10416112;28;20503;-76
2023/09/07 16:08:02;;;;;;;3.33;1.90;;;;;;;27.22;34.61;155571.47;10415379;28;20091;-76
2023/09/07 16:13:04;;;;;;;2.40;1.60;;;;;;;27.22;35.29;155572.78;10414380;28;20128;-77
2023/09/07 16:18:06;;;;;;;2.55;1.60;;;;;;;26.95;35.72;155502.25;10415640;28;20463;-76
2023/09/07 16:23:09;;;;;;;2.90;2.55;;;;;;;26.62;36.25;155420.00;10415100;28;20049;-77
2023/09/07 16:28:12;;;;;;;2.20;1.90;;;;;;;26.47;37.13;155380.84;10415232;28;20510;-77
2023/09/07 16:33:13;;;;;;;6.95;6.43;;;;;;;26.34;37.63;155346.84;10415829;28;20124;-77
2023/09/07 16:38:15;;;;;;;3.20;2.90;;;;;;;26.32;37.34;155341.66;10414719;28;20049;-76
2023/09/07 16:43:17;;;;;;;2.88;2.67;;;;;;;26.13;38.15;155294.69;10418293;28;20506;-78
2023/09/07 16:48:19;;;;;;;2.03;1.83;;;;;;;25.94;38.28;155245.06;10418676;28;20088;-77
2023/09/07 16:53:21;;;;;;;3.47;2.17;;;;;;;25.98;41.51;155255.50;10419056;28;20488;-78
2023/09/07 16:58:24;;;;;;;3.13;2.58;;;;;;;26.17;43.48;155303.81;10415809;28;20046;-76
2023/09/07 17:03:45;;;;;;;3.28;2.63;;;;;;;25.98;45.10;155255.50;10419435;28;20052;-75
2023/09/07 17:08:47;;;;;;;3.28;2.97;;;;;;;25.98;45.83;155254.22;10422507;28;20045;-75
2023/09/07 17:13:49;;;;;;;3.20;2.30;;;;;;;26.08;46.21;155280.34;10422900;28;20034;-75
2023/09/07 17:19:05;;;;;;;2.75;2.28;;;;;;;25.87;47.04;155228.13;10421917;28;20041;-75
2023/09/07 17:24:07;;;;;;;4.70;2.20;;;;;;;25.69;48.48;155179.81;10421646;28;20075;-75
2023/09/07 17:29:09;;;;;;;3.75;2.63;;;;;;;25.67;48.66;155175.88;10421497;28;20055;-74
2023/09/07 17:34:11;;;;;;;2.80;2.05;;;;;;;25.54;49.10;155143.25;10421666;28;20056;-75
2023/09/07 17:39:13;;;;;;;3.35;2.67;;;;;;;25.35;49.68;155093.72;10421055;28;20046;-74
2023/09/07 17:44:15;;;;;;;2.83;2.20;;;;;;;25.21;50.03;155057.22;10420967;28;20056;-75
2023/09/07 17:49:16;;;;;;;2.60;2.17;;;;;;;25.00;50.65;155004.97;10421039;28;20110;-75
2023/09/07 17:54:18;;;;;;;3.20;2.38;;;;;;;24.94;51.03;154988.06;10422386;28;20045;-75
2023/09/07 17:59:20;;;;;;;2.70;2.10;;;;;;;24.41;52.28;154853.78;10420098;28;20044;-76
2023/09/07 18:04:22;;;;;;;2.75;2.55;;;;;;;24.50;51.74;154875.94;10421725;28;20099;-75
2023/09/07 18:15:28;;;;;;;3.55;2.75;;;;;;;24.31;51.94;154827.66;10378119;28;20132;-87
2023/09/07 18:20:30;;;;;;;4.80;2.80;;;;;;;23.79;53.72;154696.03;10392302;28;20026;-87
2023/09/07 18:25:36;;;;;;;5.82;2.60;;;;;;;23.40;55.17;154596.94;10430241;22;20043;-87
2023/09/07 18:30:42;;;;;;;3.55;2.75;;;;;;;23.34;55.94;154581.34;10448451;28;20048;-86
2023/09/07 18:35:44;;;;;;;2.80;2.40;;;;;;;23.31;56.90;154573.50;10433892;28;20072;-84
2023/09/07 18:40:46;;;;;;;3.33;3.03;;;;;;;23.01;57.89;154495.34;10449359;28;20097;-84
2023/09/07 18:45:48;;;;;;;3.28;2.63;;;;;;;23.06;57.71;154509.66;10448065;28;20092;-85
2023/09/07 18:50:59;;;;;;;3.10;2.80;;;;;;;23.26;58.78;154560.47;10450428;28;20050;-84
2023/09/07 18:56:05;;;;;;;3.80;2.97;;;;;;;22.94;59.17;154477.16;10446041;28;20053;-84
2023/09/07 19:01:15;;;;;;;3.75;3.45;;;;;;;22.79;59.16;154440.59;10447084;28;20045;-84
2023/09/07 19:06:18;;;;;;;3.40;3.10;;;;;;;22.79;59.42;154440.59;10449177;28;20099;-84
2023/09/07 19:11:19;;;;;;;3.10;2.80;;;;;;;22.51;59.47;154367.72;10463916;28;20041;-84
2023/09/07 19:16:23;;;;;;;6.47;2.70;;;;;;;22.14;61.05;154274.00;10449534;28;20065;-85
2023/09/07 19:21:29;;;;;;;3.58;3.08;;;;;;;21.95;63.49;154225.75;10446673;28;20052;-84
2023/09/07 19:26:34;;;;;;;3.08;2.85;;;;;;;21.70;64.82;154160.72;10443218;28;20076;-84
2023/09/07 19:31:38;;;;;;;3.17;2.55;;;;;;;21.48;65.94;154106.06;10441852;28;20129;-84
2023/09/07 19:36:40;;;;;;;3.55;3.20;;;;;;;21.45;67.96;154098.25;10448246;28;20461;-83
2023/09/07 19:41:42;;;;;;;3.85;3.40;;;;;;;21.31;69.01;154063.13;10445738;28;20041;-84
2023/09/07 19:46:43;;;;;;;3.78;3.00;;;;;;;21.12;70.29;154014.94;10444872;28;20046;-84
2023/09/07 19:51:46;;;;;;;3.83;3.53;;;;;;;20.89;70.07;153955.06;10444014;28;20042;-84
2023/09/07 19:56:49;;;;;;;4.60;3.50;;;;;;;20.79;71.88;153929.09;10444717;28;20037;-85
2023/09/07 20:01:53;;;;;;;4.72;4.07;;;;;;;20.86;72.89;153947.31;10444751;28;20095;-83
2023/09/07 20:06:55;;;;;;;4.22;3.88;;;;;;;20.52;73.27;153861.47;10442727;28;20065;-85
2023/09/07 20:11:59;;;;;;;6.00;3.53;;;;;;;20.24;73.64;153788.63;10444056;28;20041;-85
2023/09/07 20:17:11;;;;;;;4.22;3.58;;;;;;;20.34;75.23;153814.59;10449255;28;20072;-84
2023/09/07 20:22:29;;;;;;;4.05;3.67;;;;;;;20.25;75.00;153792.50;10427059;28;20524;-84
2023/09/07 20:27:34;;;;;;;3.90;3.53;;;;;;;19.90;76.71;153702.81;10445509;28;20046;-84
2023/09/07 20:32:39;;;;;;;4.32;4.03;;;;;;;19.99;76.87;153724.91;10445391;28;20076;-82
2023/09/07 20:37:41;;;;;;;5.18;4.15;;;;;;;19.81;77.46;153680.72;10432922;28;20041;-84
2023/09/07 20:42:43;;;;;;;4.00;3.70;;;;;;;19.46;79.57;153591.00;10437921;28;20040;-84
2023/09/07 20:47:45;;;;;;;4.07;3.42;;;;;;;19.26;80.94;153540.34;10450836;28;20053;-84
2023/09/07 20:52:50;;;;;;;4.70;4.18;;;;;;;19.16;81.88;153515.63;10449434;28;20059;-84
2023/09/07 20:57:52;;;;;;;4.70;3.50;;;;;;;19.07;82.86;153492.25;10446984;28;20390;-84
2023/09/07 21:02:54;;;;;;;3.65;3.25;;;;;;;18.82;83.48;153427.34;10457738;28;20042;-85
2023/09/07 21:07:59;;;;;;;4.55;4.15;;;;;;;18.65;83.94;153385.72;10460004;28;20041;-86
2023/09/07 21:13:01;;;;;;;5.93;3.97;;;;;;;18.60;83.98;153371.44;10445265;28;20060;-86
2023/09/07 21:18:03;;;;;;;4.13;3.72;;;;;;;18.44;83.07;153329.88;10447850;28;20068;-84
2023/09/07 21:23:08;;;;;;;4.47;4.07;;;;;;;18.46;84.55;153336.38;10456283;28;20053;-85
2023/09/07 21:28:11;;;;;;;4.78;3.70;;;;;;;18.31;85.56;153298.69;10449643;28;20049;-85
2023/09/07 21:33:19;;;;;;;4.75;4.20;;;;;;;18.59;85.49;153368.81;10452136;28;20049;-83
2023/09/07 21:38:21;;;;;;;6.47;3.95;;;;;;;18.49;85.36;153342.84;10454333;28;20038;-84
2023/09/07 21:43:23;;;;;;;9.15;3.95;;;;;;;18.03;86.80;153227.31;10449236;28;20104;-85
2023/09/07 21:48:25;;;;;;;4.75;3.92;;;;;;;17.81;88.76;153170.19;10432136;28;20133;-85
2023/09/07 21:53:29;;;;;;;4.97;4.47;;;;;;;17.96;89.92;153207.81;10456679;28;20076;-84
2023/09/07 21:58:31;;;;;;;4.70;4.13;;;;;;;18.00;89.20;153218.22;10439682;28;20054;-84
2023/09/07 22:03:34;;;;;;;4.38;3.83;;;;;;;17.86;89.93;153183.19;10468291;28;20046;-84
2023/09/07 22:08:36;;;;;;;5.03;4.60;;;;;;;17.75;90.85;153154.59;10457333;28;20045;-84
2023/09/07 22:13:38;;;;;;;4.95;4.45;;;;;;;17.46;92.85;153081.91;10468407;28;20052;-85
2023/09/07 22:18:40;;;;;;;5.13;4.60;;;;;;;17.40;93.76;153067.63;10452347;28;20033;-84
2023/09/07 22:23:43;;;;;;;5.20;4.47;;;;;;;17.43;93.50;153074.09;10468490;28;20029;-85
2023/09/07 22:28:45;;;;;;;4.90;4.50;;;;;;;17.32;94.14;153046.88;10451262;28;20097;-85
2023/09/07 22:33:46;;;;;;;5.22;4.82;;;;;;;17.45;92.99;153079.31;10454143;28;20051;-87
2023/09/07 22:38:49;;;;;;;5.13;4.70;;;;;;;17.18;95.00;153010.56;10453862;28;20045;-87
2023/09/07 22:43:51;;;;;;;4.25;3.85;;;;;;;17.12;95.63;152994.94;10469939;28;20052;-86
2023/09/07 22:48:53;;;;;;;5.38;4.85;;;;;;;16.93;97.77;152945.69;10467112;28;20072;-85
2023/09/07 22:53:56;;;;;;;6.18;5.28;;;;;;;16.95;96.64;152950.84;10467485;28;20030;-84
2023/09/07 22:58:58;;;;;;;5.78;5.28;;;;;;;16.92;96.53;152944.38;10451462;28;20036;-86
2023/09/07 23:04:00;;;;;;;10.35;4.93;;;;;;;16.70;98.83;152888.56;10467987;28;20109;-84
2023/09/07 23:09:06;;;;;;;5.85;5.30;;;;;;;16.85;97.24;152926.22;10449799;28;20041;-84
2023/09/07 23:14:09;;;;;;;5.20;4.80;;;;;;;16.60;98.13;152863.94;10465667;28;20089;-85